This is the latest recevied weather packets stored in our database for station/object N6DZK. If no packets are shown the sender has not sent any weather packets the latest 10 day(s).
| Time | Temp. | Humidity | Pressure | Rain* | Wind** | Luminosity | Snow |
|---|---|---|---|---|---|---|---|
| 1777919459 | 18.33° C | 55% | 1015.9 hPa | 0 mm | - | 337 W/m² | - |
| 1777919156 | 18.89° C | 55% | 1015.6 hPa | 0 mm | - | 324 W/m² | - |
| 1777918853 | 18.89° C | 56% | 1015.7 hPa | 0 mm | - | 289 W/m² | - |
| 1777918550 | 18.89° C | 53% | 1015.7 hPa | 0 mm | - | 323 W/m² | - |
| 1777918248 | 18.89° C | 54% | 1015.6 hPa | 0 mm | - | 397 W/m² | - |
| 1777917947 | 18.33° C | 57% | 1015.7 hPa | 0 mm | - | 426 W/m² | - |
| 1777917646 | 17.78° C | 55% | 1016 hPa | 0 mm | - | 363 W/m² | - |
| 1777917342 | 17.78° C | 54% | 1015.6 hPa | 0 mm | - | 314 W/m² | - |
| 1777917039 | 18.33° C | 53% | 1015.6 hPa | 0 mm | - | 257 W/m² | - |
| 1777916737 | 18.33° C | 54% | 1015.5 hPa | 0 mm | - | 212 W/m² | - |
| 1777916434 | 18.89° C | 54% | 1015.5 hPa | 0 mm | - | 209 W/m² | - |
| 1777916131 | 20° C | 50% | 1015.4 hPa | 0 mm | - | 265 W/m² | - |
| 1777915828 | 21.11° C | 47% | 1015.4 hPa | 0 mm | - | 354 W/m² | - |
| 1777915524 | 20.56° C | 51% | 1015.3 hPa | 0 mm | - | 997 W/m² | - |
| 1777915221 | 18.89° C | 57% | 1015.4 hPa | 0 mm | - | 887 W/m² | - |
| 1777914918 | 18.89° C | 53% | 1015.3 hPa | 0 mm | - | 173 W/m² | - |
| 1777914615 | 18.89° C | 55% | 1015.4 hPa | 0 mm | - | 807 W/m² | - |
| 1777914310 | 18.33° C | 55% | 1015.1 hPa | 0 mm | - | 349 W/m² | - |
| 1777914009 | 18.89° C | 55% | 1015.2 hPa | 0 mm | - | 776 W/m² | - |
| 1777913704 | 18.89° C | 55% | 1015.3 hPa | 0 mm | - | 734 W/m² | - |
| 1777913401 | 18.89° C | 53% | 1015.4 hPa | 0 mm | - | 689 W/m² | - |
| 1777913098 | 20° C | 51% | 1015.5 hPa | 0 mm | - | 669 W/m² | - |
| 1777912794 | 18.89° C | 54% | 1015.3 hPa | 0 mm | - | 647 W/m² | - |
| 1777912489 | 18.33° C | 58% | 1015.4 hPa | 0 mm | - | 648 W/m² | - |
| 1777912187 | 17.22° C | 60% | 1015.4 hPa | 0 mm | - | 640 W/m² | - |
* Rain latest hour (hover to see other rain measurements)
** Current wind speed in m/s (hover to see current wind gust speed)